Time;durP1;ratioP1;P1;durP2;ratioP2;P2;SDS_P1;SDS_P2;PMS_P1;PMS_P2;Temp;Humidity;BMP_temperature;BMP_pressure;BME280_temperature;BME280_humidity;BME280_pressure;Samples;Min_cycle;Max_cycle;Signal;HPM_P1;HPM_P2
2021/11/26 00:01:32;;;;;;;56.63;39.72;;;5.40;94.30;;;;;;5031874;28;20417;-77
2021/11/26 00:04:00;;;;;;;55.92;41.13;;;5.40;94.30;;;;;;5022678;28;20425;-79
2021/11/26 00:06:29;;;;;;;53.42;38.90;;;5.50;94.40;;;;;;5033228;28;20412;-79
2021/11/26 00:08:56;;;;;;;53.90;38.67;;;5.50;94.40;;;;;;5018963;28;20514;-76
2021/11/26 00:11:23;;;;;;;50.55;37.42;;;5.50;94.30;;;;;;5031446;28;20919;-81
2021/11/26 00:14:06;;;;;;;45.27;34.33;;;5.50;94.30;;;;;;5029765;28;20512;-76
2021/11/26 00:16:38;;;;;;;48.30;35.50;;;5.50;94.20;;;;;;5024222;28;20404;-79
2021/11/26 00:19:07;;;;;;;44.92;33.22;;;5.50;94.10;;;;;;5020261;28;20407;-81
2021/11/26 00:21:36;;;;;;;49.90;36.90;;;5.50;94.00;;;;;;5034214;28;20490;-81
2021/11/26 00:24:05;;;;;;;49.30;35.77;;;5.50;93.90;;;;;;5027082;28;20420;-77
2021/11/26 00:26:33;;;;;;;48.13;36.03;;;5.50;93.90;;;;;;5022914;28;20432;-81
2021/11/26 00:29:00;;;;;;;47.45;35.50;;;5.50;93.90;;;;;;5028756;28;20402;-80
2021/11/26 00:31:27;;;;;;;45.40;34.30;;;5.50;93.90;;;;;;5029656;28;20414;-81
2021/11/26 00:33:54;;;;;;;46.00;34.75;;;5.50;93.90;;;;;;5030586;28;20401;-78
2021/11/26 00:36:21;;;;;;;49.35;36.90;;;5.50;93.90;;;;;;5024142;28;20415;-78
2021/11/26 00:38:48;;;;;;;48.22;35.00;;;5.50;93.80;;;;;;5020919;28;20452;-81
2021/11/26 00:41:16;;;;;;;49.90;37.17;;;5.40;93.90;;;;;;5017883;28;20425;-83
2021/11/26 00:43:44;;;;;;;45.13;33.97;;;5.40;93.90;;;;;;5025308;28;20435;-83
2021/11/26 00:46:12;;;;;;;42.80;31.85;;;5.30;93.90;;;;;;5029663;28;20406;-82
2021/11/26 00:48:39;;;;;;;38.47;29.20;;;5.20;94.00;;;;;;5033392;28;20434;-81
2021/11/26 00:51:06;;;;;;;45.55;33.65;;;5.30;94.00;;;;;;5031715;28;20412;-83
2021/11/26 00:53:33;;;;;;;42.47;31.63;;;5.30;93.90;;;;;;5028396;28;20425;-81
2021/11/26 00:56:00;;;;;;;39.10;30.20;;;5.30;93.90;;;;;;5034244;28;20901;-78
2021/11/26 00:58:28;;;;;;;39.60;29.80;;;5.30;93.90;;;;;;5023610;28;20411;-83
2021/11/26 01:00:55;;;;;;;37.65;28.20;;;5.30;93.80;;;;;;5027629;28;20484;-76
2021/11/26 01:03:23;;;;;;;39.00;29.40;;;5.30;93.70;;;;;;5015482;28;20430;-78
2021/11/26 01:05:50;;;;;;;40.78;29.83;;;5.20;93.50;;;;;;4979228;28;1195277;-77
2021/11/26 01:08:18;;;;;;;40.22;31.38;;;5.20;93.40;;;;;;5027987;28;20906;-76
2021/11/26 01:10:48;;;;;;;45.17;33.00;;;5.20;93.50;;;;;;5025174;28;20886;-76
2021/11/26 01:13:15;;;;;;;41.72;30.65;;;5.10;93.50;;;;;;5042034;28;20893;-76
2021/11/26 01:15:43;;;;;;;35.20;28.10;;;5.10;93.60;;;;;;5024822;28;20404;-78
2021/11/26 01:18:15;;;;;;;38.85;30.08;;;5.10;93.50;;;;;;5018014;28;20486;-81
2021/11/26 01:20:42;;;;;;;36.10;27.88;;;5.00;93.40;;;;;;5019102;28;20410;-81
2021/11/26 01:23:09;;;;;;;36.17;28.23;;;5.00;93.30;;;;;;5029785;28;20406;-76
2021/11/26 01:25:37;;;;;;;30.80;23.00;;;4.90;93.30;;;;;;5032176;28;20425;-77
2021/11/26 01:28:05;;;;;;;28.15;22.42;;;4.90;93.30;;;;;;5025012;28;20402;-79
2021/11/26 01:30:41;;;;;;;29.58;21.02;;;4.80;93.20;;;;;;5019792;28;20443;-80
2021/11/26 01:33:11;;;;;;;22.98;18.63;;;4.80;93.20;;;;;;5021555;28;20445;-78
2021/11/26 01:35:40;;;;;;;24.38;18.70;;;4.80;93.10;;;;;;5017064;28;20400;-81
2021/11/26 01:38:09;;;;;;;25.08;20.38;;;4.70;93.00;;;;;;5019394;28;20502;-78
2021/11/26 01:40:38;;;;;;;25.80;20.97;;;4.70;92.80;;;;;;5032397;28;20514;-78
2021/11/26 01:43:08;;;;;;;20.60;16.20;;;4.60;92.90;;;;;;5032271;28;20457;-76
2021/11/26 01:45:46;;;;;;;;;;;4.50;92.90;;;;;;5026612;28;20041;-78
2021/11/26 01:48:13;;;;;;;;;;;4.60;93.00;;;;;;5017852;28;20320;-78
2021/11/26 01:50:40;;;;;;;;;;;4.70;93.10;;;;;;5032036;28;20285;-77
2021/11/26 01:53:07;;;;;;;;;;;4.60;93.00;;;;;;5018418;28;20390;-81
2021/11/26 01:55:34;;;;;;;;;;;4.60;92.90;;;;;;5019589;28;19922;-81
2021/11/26 01:58:01;;;;;;;;;;;4.60;92.90;;;;;;5025640;28;19925;-78
2021/11/26 02:00:30;;;;;;;;;;;4.70;93.10;;;;;;5022467;28;19975;-81
2021/11/26 02:02:57;;;;;;;;;;;4.70;93.40;;;;;;5016066;28;19922;-77
2021/11/26 02:05:24;;;;;;;;;;;4.70;93.60;;;;;;5018877;28;19991;-81
2021/11/26 02:07:51;;;;;;;;;;;4.70;93.40;;;;;;5026201;28;19925;-76
2021/11/26 02:10:18;;;;;;;;;;;4.80;93.20;;;;;;5029472;28;19924;-79
2021/11/26 02:12:45;;;;;;;;;;;4.90;93.10;;;;;;5019158;28;19983;-80
2021/11/26 02:15:24;;;;;;;;;;;4.90;93.00;;;;;;5033285;28;20490;-79
2021/11/26 02:17:51;;;;;;;;;;;4.90;92.80;;;;;;5032536;28;19929;-80
2021/11/26 02:20:19;;;;;;;;;;;4.90;92.70;;;;;;5018028;28;19924;-80
2021/11/26 02:22:46;;;;;;;;;;;4.80;92.50;;;;;;5031890;28;19925;-81
2021/11/26 02:25:14;;;;;;;;;;;4.80;92.60;;;;;;5019407;28;19921;-81
2021/11/26 02:27:41;;;;;;;;;;;4.80;92.60;;;;;;5027171;28;19961;-76
2021/11/26 02:30:16;;;;;;;;;;;4.80;92.70;;;;;;5013341;28;19948;-80
2021/11/26 02:32:43;;;;;;;;;;;4.80;92.90;;;;;;5020280;28;19979;-78
2021/11/26 02:35:11;;;;;;;;;;;4.80;92.80;;;;;;5025764;28;19924;-81
2021/11/26 02:37:39;;;;;;;;;;;4.90;92.70;;;;;;5032741;28;19921;-81
2021/11/26 02:40:07;;;;;;;;;;;4.90;92.60;;;;;;5015982;28;19921;-78
2021/11/26 02:42:35;;;;;;;;;;;4.70;92.70;;;;;;5026430;28;19925;-81
2021/11/26 02:45:03;;;;;;;;;;;4.70;92.90;;;;;;5022679;28;19925;-76
2021/11/26 02:47:30;;;;;;;;;;;4.60;92.90;;;;;;5021090;28;19929;-78
2021/11/26 02:49:56;;;;;;;;;;;4.60;92.90;;;;;;5026459;28;19980;-77
2021/11/26 02:52:23;;;;;;;;;;;4.50;92.80;;;;;;5016925;28;19936;-76
2021/11/26 02:54:50;;;;;;;;;;;4.50;92.80;;;;;;5032374;28;19925;-77
2021/11/26 02:57:17;;;;;;;;;;;4.50;92.90;;;;;;5025171;28;19921;-79
2021/11/26 02:59:44;;;;;;;;;;;4.50;92.80;;;;;;5024567;28;19971;-80
2021/11/26 03:02:11;;;;;;;;;;;4.50;92.90;;;;;;5019446;28;19921;-79
2021/11/26 03:04:38;;;;;;;;;;;4.40;92.90;;;;;;5029906;28;19947;-76
2021/11/26 03:07:06;;;;;;;;;;;4.30;93.00;;;;;;5035247;28;19929;-80
2021/11/26 03:09:33;;;;;;;;;;;4.30;93.10;;;;;;5031488;28;19925;-81
2021/11/26 03:11:59;;;;;;;;;;;4.20;93.20;;;;;;5029867;28;19921;-81
2021/11/26 03:14:26;;;;;;;;;;;4.20;93.10;;;;;;5035745;28;19920;-77
2021/11/26 03:16:53;;;;;;;;;;;4.10;93.10;;;;;;5030487;28;19968;-80
2021/11/26 03:19:20;;;;;;;;;;;4.00;93.40;;;;;;5031765;28;19925;-76
2021/11/26 03:21:47;;;;;;;;;;;4.00;93.50;;;;;;5029954;28;19927;-80
2021/11/26 03:24:14;;;;;;;;;;;3.90;93.80;;;;;;5031431;28;20381;-78
2021/11/26 03:26:41;;;;;;;;;;;3.90;93.90;;;;;;5029336;28;19921;-81
2021/11/26 03:29:08;;;;;;;;;;;3.90;94.00;;;;;;5019789;28;20373;-79
2021/11/26 03:31:35;;;;;;;;;;;3.90;94.30;;;;;;5021450;28;19944;-77
2021/11/26 03:34:02;;;;;;;;;;;3.80;94.20;;;;;;5019466;28;19921;-77
2021/11/26 03:36:29;;;;;;;;;;;3.80;94.20;;;;;;5024184;28;19933;-80
2021/11/26 03:38:56;;;;;;;;;;;3.80;94.20;;;;;;5031027;28;19921;-80
2021/11/26 03:41:23;;;;;;;;;;;3.70;94.10;;;;;;5028045;28;19929;-80
2021/11/26 03:43:50;;;;;;;;;;;3.70;94.00;;;;;;5029783;28;19924;-77
2021/11/26 03:46:16;;;;;;;;;;;3.60;94.20;;;;;;5031869;28;19921;-80
2021/11/26 03:48:43;;;;;;;;;;;3.70;94.50;;;;;;5020611;28;19921;-78
2021/11/26 03:51:10;;;;;;;;;;;3.80;94.50;;;;;;5015709;28;19921;-77
2021/11/26 03:53:37;;;;;;;;;;;3.80;94.50;;;;;;5018016;28;19921;-77
2021/11/26 03:56:04;;;;;;;;;;;3.80;94.60;;;;;;5026072;28;20365;-78
2021/11/26 03:58:32;;;;;;;;;;;3.80;94.40;;;;;;5032008;28;20392;-80
2021/11/26 04:00:58;;;;;;;;;;;3.80;94.30;;;;;;5029104;28;19928;-80
2021/11/26 04:03:25;;;;;;;;;;;3.80;94.30;;;;;;5024329;28;19979;-77
2021/11/26 04:05:52;;;;;;;;;;;3.80;94.10;;;;;;5032496;28;19928;-76
2021/11/26 04:08:19;;;;;;;;;;;3.70;94.10;;;;;;5021117;28;19925;-78
2021/11/26 04:10:47;;;;;;;;;;;3.70;94.10;;;;;;5023773;28;19922;-80
2021/11/26 04:13:17;;;;;;;;;;;3.60;94.20;;;;;;5035384;28;19921;-79
2021/11/26 04:15:44;;;;;;;;;;;3.60;94.50;;;;;;5035907;28;19924;-81
2021/11/26 04:18:11;;;;;;;;;;;3.60;94.60;;;;;;5025424;28;19968;-77
2021/11/26 04:20:38;;;;;;;;;;;3.60;94.60;;;;;;5028601;28;19928;-80
2021/11/26 04:23:05;;;;;;;;;;;3.60;94.50;;;;;;5018087;28;20364;-80
2021/11/26 04:25:31;;;;;;;;;;;3.60;94.50;;;;;;5020806;28;19921;-80
2021/11/26 04:27:58;;;;;;;;;;;3.60;94.50;;;;;;5021940;28;19925;-81
2021/11/26 04:30:26;;;;;;;;;;;3.60;94.40;;;;;;5031513;28;19925;-77
2021/11/26 04:32:53;;;;;;;;;;;3.60;94.40;;;;;;5024594;28;20377;-79
2021/11/26 04:35:21;;;;;;;;;;;3.50;94.30;;;;;;5029468;28;19932;-79
2021/11/26 04:37:48;;;;;;;;;;;3.50;94.40;;;;;;5024239;28;20373;-80
2021/11/26 04:40:15;;;;;;;;;;;3.50;94.40;;;;;;5023227;28;19921;-79
2021/11/26 04:42:42;;;;;;;;;;;3.40;94.40;;;;;;5031212;28;19921;-78
2021/11/26 04:45:10;;;;;;;;;;;3.40;94.20;;;;;;5031814;28;19971;-79
2021/11/26 04:47:37;;;;;;;;;;;3.30;94.20;;;;;;5034614;28;19921;-77
2021/11/26 04:50:05;;;;;;;;;;;3.30;94.20;;;;;;5027740;28;19933;-78
2021/11/26 04:52:32;;;;;;;;;;;3.20;94.20;;;;;;5028970;28;20000;-80
2021/11/26 04:54:59;;;;;;;;;;;3.20;94.30;;;;;;5026956;28;19921;-77
2021/11/26 04:57:26;;;;;;;;;;;3.20;94.30;;;;;;5030465;28;19921;-76
2021/11/26 04:59:53;;;;;;;;;;;3.20;94.30;;;;;;5029298;28;19921;-80
2021/11/26 05:02:20;;;;;;;;;;;3.20;94.40;;;;;;5033060;28;19921;-77
2021/11/26 05:04:46;;;;;;;;;;;3.20;94.60;;;;;;5019870;28;19969;-81
2021/11/26 05:07:13;;;;;;;;;;;3.20;94.60;;;;;;5034209;28;19921;-76
2021/11/26 05:09:41;;;;;;;;;;;3.20;94.60;;;;;;5025723;28;19921;-80
2021/11/26 05:12:08;;;;;;;;;;;3.20;94.70;;;;;;5024934;28;20379;-79
2021/11/26 05:14:35;;;;;;;;;;;3.20;94.80;;;;;;5030095;28;19922;-78
2021/11/26 05:17:02;;;;;;;;;;;3.20;94.70;;;;;;5032392;28;20389;-76
2021/11/26 05:19:29;;;;;;;;;;;3.20;94.70;;;;;;5033937;28;19932;-80
2021/11/26 05:21:56;;;;;;;;;;;3.20;94.70;;;;;;5031980;28;19928;-78
2021/11/26 05:24:22;;;;;;;;;;;3.20;94.70;;;;;;5032569;28;20381;-81
2021/11/26 05:26:49;;;;;;;;;;;3.20;94.70;;;;;;5017992;28;20329;-81
2021/11/26 05:29:16;;;;;;;;;;;3.20;94.70;;;;;;5023136;28;19925;-76
2021/11/26 05:31:43;;;;;;;;;;;3.20;94.80;;;;;;5023214;28;19929;-78
2021/11/26 05:34:09;;;;;;;;;;;3.20;94.70;;;;;;5019998;28;19921;-76
2021/11/26 05:36:37;;;;;;;;;;;3.20;94.80;;;;;;5021282;28;19928;-78
2021/11/26 05:39:04;;;;;;;;;;;3.00;95.00;;;;;;5018262;28;19924;-78
2021/11/26 05:41:31;;;;;;;;;;;2.90;94.70;;;;;;5023089;28;19921;-81
2021/11/26 05:43:58;;;;;;;;;;;2.80;94.70;;;;;;5021313;28;19928;-81
2021/11/26 05:46:25;;;;;;;;;;;2.80;94.80;;;;;;5028762;28;19921;-76
2021/11/26 05:48:52;;;;;;;;;;;2.70;94.70;;;;;;5031662;28;19929;-81
2021/11/26 05:51:19;;;;;;;;;;;2.60;94.80;;;;;;5023569;28;19974;-78
2021/11/26 05:53:46;;;;;;;;;;;2.50;94.80;;;;;;5032190;28;19921;-80
2021/11/26 05:56:12;;;;;;;;;;;2.50;94.90;;;;;;5033456;28;19978;-80
2021/11/26 05:58:39;;;;;;;;;;;2.40;94.90;;;;;;5025093;28;19928;-76
2021/11/26 06:01:06;;;;;;;;;;;2.40;95.10;;;;;;5023819;28;19929;-76
2021/11/26 06:03:33;;;;;;;;;;;2.40;95.10;;;;;;5030814;28;19972;-80
2021/11/26 06:06:00;;;;;;;;;;;2.30;95.00;;;;;;5017957;28;20378;-76
2021/11/26 06:08:27;;;;;;;;;;;2.30;95.10;;;;;;5028894;28;19921;-77
2021/11/26 06:10:55;;;;;;;;;;;2.30;95.00;;;;;;5029481;28;19925;-79
2021/11/26 06:13:22;;;;;;;;;;;2.20;95.00;;;;;;5031144;28;19929;-76
2021/11/26 06:15:49;;;;;;;;;;;2.20;95.00;;;;;;5027214;28;19925;-81
2021/11/26 06:18:15;;;;;;;;;;;2.10;94.90;;;;;;5025841;28;19921;-78
2021/11/26 06:20:42;;;;;;;;;;;2.10;95.00;;;;;;5031839;28;19921;-78
2021/11/26 06:23:09;;;;;;;;;;;2.00;95.00;;;;;;5034161;28;19978;-76
2021/11/26 06:25:36;;;;;;;;;;;2.00;95.00;;;;;;5028910;28;20276;-79
2021/11/26 06:28:03;;;;;;;;;;;2.00;95.00;;;;;;5034760;28;20435;-81
2021/11/26 06:30:30;;;;;;;;;;;1.90;95.00;;;;;;5016293;28;19925;-76
2021/11/26 06:32:57;;;;;;;;;;;2.00;95.10;;;;;;5029793;28;19921;-78
2021/11/26 06:35:24;;;;;;;;;;;2.00;95.10;;;;;;5016254;28;19992;-81
2021/11/26 06:37:53;;;;;;;;;;;2.00;95.10;;;;;;5042112;28;19924;-81
2021/11/26 06:40:20;;;;;;;;;;;1.90;94.90;;;;;;5030916;28;19921;-76
2021/11/26 06:42:48;;;;;;;;;;;1.90;95.00;;;;;;5028824;28;19921;-76
2021/11/26 06:45:16;;;;;;;;;;;1.90;95.00;;;;;;5020421;28;19924;-80
2021/11/26 06:47:42;;;;;;;;;;;1.90;95.00;;;;;;5036569;28;19925;-78
2021/11/26 06:50:10;;;;;;;;;;;1.80;95.00;;;;;;5038292;28;19925;-76
2021/11/26 06:52:37;;;;;;;;;;;1.80;94.90;;;;;;5033831;28;19921;-78
2021/11/26 06:55:07;;;;;;;;;;;1.80;95.00;;;;;;5024075;28;19932;-77
2021/11/26 06:57:36;;;;;;;;;;;1.70;95.00;;;;;;5033201;28;19925;-80
2021/11/26 07:00:05;;;;;;;;;;;1.70;95.10;;;;;;5020310;28;20373;-80
2021/11/26 07:02:31;;;;;;;;;;;1.70;95.10;;;;;;5035312;28;19925;-80
2021/11/26 07:04:59;;;;;;;;;;;1.70;95.20;;;;;;5024105;28;19921;-78
2021/11/26 07:07:26;;;;;;;;;;;1.80;95.30;;;;;;5031974;28;19951;-81
2021/11/26 07:09:53;;;;;;;;;;;1.80;95.20;;;;;;5019032;28;19921;-76
2021/11/26 07:12:20;;;;;;;;;;;1.80;95.20;;;;;;5024833;28;20322;-80
2021/11/26 07:14:48;;;;;;;;;;;1.90;95.20;;;;;;5039886;28;19951;-80
2021/11/26 07:17:15;;;;;;;;;;;1.90;95.10;;;;;;5022293;28;19932;-76
2021/11/26 07:19:46;;;;;;;;;;;1.90;95.10;;;;;;5020321;28;19971;-78
2021/11/26 07:22:13;;;;;;;;;;;2.00;95.30;;;;;;5022440;28;19921;-80
2021/11/26 07:24:40;;;;;;;;;;;2.00;95.40;;;;;;5014443;28;20024;-76
2021/11/26 07:27:07;;;;;;;;;;;2.10;95.40;;;;;;5030747;28;19929;-80
2021/11/26 07:29:34;;;;;;;;;;;2.10;95.20;;;;;;5022807;28;19929;-80
2021/11/26 07:32:01;;;;;;;;;;;2.10;95.20;;;;;;5027526;28;19975;-78
2021/11/26 07:34:27;;;;;;;;;;;2.30;95.70;;;;;;5029196;28;19929;-80
2021/11/26 07:36:55;;;;;;;;;;;2.50;95.00;;;;;;5030001;28;20320;-80
2021/11/26 07:39:23;;;;;;;;;;;2.70;94.90;;;;;;5031365;28;19932;-76
2021/11/26 07:41:50;;;;;;;;;;;2.90;94.70;;;;;;5026849;28;20370;-80
2021/11/26 07:44:17;;;;;;;;;;;3.00;94.50;;;;;;5029292;28;19921;-77
2021/11/26 07:46:43;;;;;;;;;;;3.00;94.40;;;;;;5030488;28;19921;-77
2021/11/26 07:49:10;;;;;;;;;;;3.00;94.30;;;;;;5024186;28;20266;-80
2021/11/26 07:51:37;;;;;;;;;;;3.00;94.30;;;;;;5023571;28;19921;-76
2021/11/26 07:54:04;;;;;;;;;;;3.00;94.20;;;;;;5036329;28;19925;-81
2021/11/26 07:56:31;;;;;;;;;;;3.00;94.30;;;;;;5020944;28;19924;-77
2021/11/26 07:58:58;;;;;;;;;;;3.00;94.40;;;;;;5022368;28;19928;-80
2021/11/26 08:01:25;;;;;;;;;;;3.10;94.60;;;;;;5030617;28;20439;-80
2021/11/26 08:03:52;;;;;;;;;;;3.10;94.60;;;;;;5035142;28;19928;-80
2021/11/26 08:06:19;;;;;;;;;;;3.10;94.70;;;;;;5028062;28;19925;-80
2021/11/26 08:08:45;;;;;;;;;;;3.20;94.70;;;;;;5036684;28;19925;-80
2021/11/26 08:11:12;;;;;;;;;;;3.20;94.70;;;;;;5029423;28;19928;-76
2021/11/26 08:13:39;;;;;;;;;;;3.20;94.70;;;;;;5018383;28;19926;-79
2021/11/26 08:16:08;;;;;;;;;;;3.30;94.80;;;;;;5025343;28;19992;-79
2021/11/26 08:18:34;;;;;;;;;;;3.40;94.80;;;;;;5033077;28;20020;-80
2021/11/26 08:21:04;;;;;;;;;;;3.40;94.90;;;;;;5024719;28;19921;-76
2021/11/26 08:23:31;;;;;;;;;;;3.50;94.90;;;;;;5022253;28;19921;-76
2021/11/26 08:25:59;;;;;;;;;;;3.50;94.80;;;;;;5032592;28;19928;-77
2021/11/26 08:28:28;;;;;;;;;;;3.60;94.90;;;;;;5037406;28;19925;-76
2021/11/26 08:30:55;;;;;;;;;;;3.60;94.80;;;;;;5022306;28;20374;-80
2021/11/26 08:33:24;;;;;;;;;;;3.60;94.70;;;;;;5028383;28;19928;-79
2021/11/26 08:35:52;;;;;;;;;;;3.70;94.70;;;;;;5031820;28;20377;-77
2021/11/26 08:38:19;;;;;;;;;;;3.80;94.80;;;;;;5028304;28;20403;-79
2021/11/26 08:40:47;;;;;;;;;;;3.90;94.80;;;;;;5027826;28;20423;-75
2021/11/26 08:43:14;;;;;;;;;;;4.00;94.90;;;;;;5028856;28;19933;-78
2021/11/26 08:45:41;;;;;;;;;;;4.20;95.00;;;;;;5029195;28;20325;-75
2021/11/26 08:48:10;;;;;;;;;;;4.40;94.90;;;;;;5025873;28;19921;-81
2021/11/26 08:50:44;;;;;;;;;;;4.70;94.80;;;;;;5027427;28;20395;-78
2021/11/26 08:53:11;;;;;;;;;;;4.90;94.60;;;;;;5038449;28;19921;-75
2021/11/26 08:55:40;;;;;;;;;;;5.00;94.20;;;;;;5024303;28;19921;-81
2021/11/26 08:58:12;;;;;;;;;;;5.10;94.00;;;;;;5044127;28;19925;-82
2021/11/26 09:00:38;;;;;;;;;;;5.20;94.00;;;;;;5025762;28;19975;-77
2021/11/26 09:03:05;;;;;;;;;;;5.30;93.90;;;;;;5036312;28;19921;-80
2021/11/26 09:05:33;;;;;;;;;;;5.30;93.90;;;;;;5030399;28;19925;-81
2021/11/26 09:08:01;;;;;;;;;;;5.40;93.80;;;;;;5032571;28;19971;-77
2021/11/26 09:10:30;;;;;;;;;;;5.40;93.80;;;;;;5028047;28;19921;-78
2021/11/26 09:12:57;;;;;;;;;;;5.40;93.80;;;;;;5047121;28;20369;-79
2021/11/26 09:15:25;;;;;;;;;;;5.40;93.90;;;;;;5040447;28;19925;-81
2021/11/26 09:17:52;;;;;;;;;;;5.50;93.90;;;;;;5031692;28;20371;-80
2021/11/26 09:20:19;;;;;;;;;;;5.50;93.90;;;;;;5027372;28;19940;-79
2021/11/26 09:22:46;;;;;;;;;;;5.70;94.00;;;;;;5039866;28;19925;-78
2021/11/26 09:25:14;;;;;;;;;;;5.80;94.10;;;;;;5031936;28;19995;-82
2021/11/26 09:27:41;;;;;;;;;;;6.00;94.00;;;;;;5034405;28;19935;-76
2021/11/26 09:30:10;;;;;;;;;;;6.20;93.80;;;;;;5034300;28;20416;-77
2021/11/26 09:32:37;;;;;;;;;;;6.30;93.70;;;;;;5027104;28;20021;-78
2021/11/26 09:35:05;;;;;;;;;;;6.30;93.50;;;;;;5034392;28;19929;-80
2021/11/26 09:37:32;;;;;;;;;;;6.40;93.40;;;;;;5033649;28;20365;-77
2021/11/26 09:39:59;;;;;;;;;;;6.40;93.30;;;;;;5029052;28;19925;-76
2021/11/26 09:42:27;;;;;;;;;;;6.40;93.30;;;;;;5030852;28;19931;-78
2021/11/26 09:44:56;;;;;;;;;;;6.50;93.40;;;;;;5033070;28;20566;-81
2021/11/26 09:47:23;;;;;;;;;;;6.50;92.70;;;;;;5033360;28;19928;-80
2021/11/26 09:49:50;;;;;;;;;;;6.70;92.80;;;;;;5039370;28;19929;-78
2021/11/26 09:52:17;;;;;;;;;;;6.80;92.60;;;;;;5033520;28;20385;-77
2021/11/26 09:54:45;;;;;;;;;;;7.00;92.50;;;;;;5035947;28;20476;-80
2021/11/26 09:57:12;;;;;;;;;;;7.20;92.70;;;;;;5043999;28;20427;-78
2021/11/26 09:59:40;;;;;;;;;;;7.40;92.80;;;;;;5026375;28;19924;-82
2021/11/26 10:02:11;;;;;;;;;;;7.60;92.10;;;;;;5037234;28;19925;-79
2021/11/26 10:04:38;;;;;;;;;;;7.70;91.80;;;;;;5028810;28;20364;-78
2021/11/26 10:07:05;;;;;;;;;;;7.80;91.20;;;;;;5023541;28;20447;-77
2021/11/26 10:09:33;;;;;;;;;;;8.00;91.90;;;;;;5029724;28;20327;-76
2021/11/26 10:12:10;;;;;;;;;;;8.20;91.10;;;;;;5032108;28;19921;-78
2021/11/26 10:14:40;;;;;;;;;;;8.30;90.40;;;;;;5033325;28;19929;-78
2021/11/26 10:17:12;;;;;;;;;;;8.50;90.20;;;;;;5034459;28;19927;-76
2021/11/26 10:19:40;;;;;;;;;;;8.70;89.50;;;;;;5041744;28;19921;-80
2021/11/26 10:22:14;;;;;;;;;;;8.80;87.10;;;;;;5037516;28;19925;-79
2021/11/26 10:24:42;;;;;;;8.85;5.82;;;9.00;89.30;;;;;;5034631;28;19928;-79
2021/11/26 10:27:09;;;;;;;;;;;9.20;88.90;;;;;;5035247;28;20057;-76
2021/11/26 10:29:38;;;;;;;;;;;9.40;86.20;;;;;;5036504;28;19925;-78
2021/11/26 10:32:10;;;;;;;;;;;9.50;84.00;;;;;;5028889;28;19928;-79
2021/11/26 10:34:40;;;;;;;;;;;9.60;83.60;;;;;;5032156;28;19921;-80
2021/11/26 10:37:20;;;;;;;;;;;9.80;82.20;;;;;;5030589;28;19975;-76
2021/11/26 10:39:47;;;;;;;;;;;10.00;79.40;;;;;;5033550;28;19924;-79
2021/11/26 10:42:23;;;;;;;;;;;10.10;78.40;;;;;;5017865;28;20369;-76
2021/11/26 10:45:02;;;;;;;;;;;10.20;78.60;;;;;;5037107;28;19929;-78
2021/11/26 10:47:53;;;;;;;1.50;1.20;;;10.20;78.30;;;;;;5040686;28;19920;-80
2021/11/26 10:58:49;;;;;;;;;;;10.60;72.50;;;;;;5034244;28;20451;-76
2021/11/26 11:01:16;;;;;;;;;;;10.60;72.40;;;;;;5027382;28;19956;-81
2021/11/26 11:03:44;;;;;;;;;;;10.70;73.90;;;;;;5032731;28;19921;-76
2021/11/26 11:06:18;;;;;;;;;;;10.70;71.70;;;;;;5028450;28;19921;-80
2021/11/26 11:08:45;;;;;;;;;;;10.80;73.40;;;;;;5035338;28;19929;-81
2021/11/26 11:11:12;;;;;;;;;;;10.80;72.70;;;;;;5040385;28;20388;-78
2021/11/26 11:13:38;;;;;;;;;;;11.00;73.90;;;;;;5034572;28;19924;-79
2021/11/26 11:16:05;;;;;;;;;;;11.10;73.10;;;;;;5044874;28;20339;-81
2021/11/26 11:18:32;;;;;;;;;;;11.30;73.30;;;;;;5043170;28;19937;-81
2021/11/26 11:20:59;;;;;;;;;;;11.40;73.10;;;;;;5028992;28;20373;-76
2021/11/26 11:23:26;;;;;;;;;;;11.40;73.00;;;;;;5035254;28;19921;-75
2021/11/26 11:25:56;;;;;;;;;;;11.50;71.80;;;;;;5036002;28;19927;-80
2021/11/26 11:28:25;;;;;;;;;;;11.50;70.80;;;;;;5031667;28;19921;-80
2021/11/26 11:30:52;;;;;;;;;;;11.60;72.00;;;;;;5029900;28;19921;-76
2021/11/26 11:33:20;;;;;;;;;;;11.80;72.20;;;;;;5041798;28;19971;-77
2021/11/26 11:35:47;;;;;;;;;;;12.00;72.50;;;;;;5034150;28;20281;-76
2021/11/26 11:38:15;;;;;;;;;;;12.10;71.70;;;;;;5034367;28;20377;-76
2021/11/26 11:40:43;;;;;;;;;;;12.10;70.50;;;;;;5034739;28;19953;-82
2021/11/26 11:43:11;;;;;;;;;;;12.20;72.50;;;;;;5030915;28;19921;-80
2021/11/26 11:45:39;;;;;;;;;;;12.20;72.40;;;;;;5017780;28;19922;-76
2021/11/26 11:48:09;;;;;;;;;;;12.20;72.10;;;;;;5034695;28;20046;-76
2021/11/26 11:50:43;;;;;;;;;;;12.20;70.40;;;;;;5034618;28;19921;-80
2021/11/26 11:53:30;;;;;;;;;;;12.30;71.50;;;;;;5028745;28;19921;-79
2021/11/26 11:56:07;;;;;;;;;;;12.30;69.20;;;;;;5028576;28;19925;-78
2021/11/26 11:58:51;;;;;;;;;;;12.40;69.30;;;;;;5042160;28;19968;-80
2021/11/26 12:01:21;;;;;;;;;;;12.40;70.10;;;;;;5029028;28;19967;-79
2021/11/26 12:03:49;;;;;;;;;;;12.50;69.60;;;;;;5027682;28;19928;-76
2021/11/26 12:06:17;;;;;;;;;;;12.60;71.70;;;;;;5030209;28;20003;-80
2021/11/26 12:08:48;;;;;;;;;;;12.80;69.50;;;;;;5036308;28;20468;-76
2021/11/26 12:11:47;;;;;;;;;;;12.90;69.40;;;;;;5033491;28;19924;-80
2021/11/26 12:14:15;;;;;;;;;;;13.10;70.20;;;;;;5004172;28;19929;-80
2021/11/26 12:16:49;;;;;;;;;;;13.30;67.90;;;;;;5026764;28;20296;-79
2021/11/26 12:19:25;;;;;;;2.40;1.75;;;13.30;67.50;;;;;;5031867;28;19921;-79
2021/11/26 12:21:56;;;;;;;2.00;1.80;;;13.30;65.00;;;;;;5031878;28;20422;-81
2021/11/26 12:24:32;;;;;;;2.15;1.70;;;13.40;65.20;;;;;;5027729;28;20430;-78
2021/11/26 12:27:00;;;;;;;1.83;1.70;;;13.40;66.80;;;;;;5031313;28;20754;-77
2021/11/26 12:29:46;;;;;;;1.60;1.30;;;13.60;65.10;;;;;;5030935;28;20452;-81
2021/11/26 12:32:17;;;;;;;1.40;1.30;;;13.60;63.70;;;;;;5028020;28;20410;-76
2021/11/26 12:34:50;;;;;;;2.28;1.50;;;13.60;62.70;;;;;;5026353;28;20404;-77
2021/11/26 12:37:25;;;;;;;2.97;1.83;;;13.70;64.10;;;;;;5041408;28;20076;-80
2021/11/26 12:39:54;;;;;;;2.90;1.98;;;13.70;64.30;;;;;;5031807;28;20452;-82
2021/11/26 12:42:22;;;;;;;1.05;0.95;;;13.70;60.50;;;;;;5032738;28;20456;-77
2021/11/26 12:45:02;;;;;;;0.93;0.82;;;13.80;60.70;;;;;;5030726;28;20904;-79
2021/11/26 12:47:38;;;;;;;2.10;1.10;;;13.60;61.20;;;;;;5038170;28;20898;-82
2021/11/26 12:53:13;;;;;;;1.52;1.27;;;13.60;60.20;;;;;;5034800;28;20412;-77
2021/11/26 12:55:56;;;;;;;3.00;1.80;;;13.60;61.00;;;;;;5026307;28;20874;-81
2021/11/26 12:58:25;;;;;;;1.30;1.20;;;13.50;61.50;;;;;;5031394;28;20429;-79
2021/11/26 13:00:54;;;;;;;2.38;1.70;;;13.40;61.60;;;;;;5038152;28;20393;-76
2021/11/26 13:03:21;;;;;;;3.25;2.00;;;13.30;61.20;;;;;;5022363;28;21010;-78
2021/11/26 13:05:53;;;;;;;1.60;1.25;;;13.20;61.90;;;;;;5031055;28;20437;-79
2021/11/26 13:08:20;;;;;;;1.55;1.45;;;13.10;63.40;;;;;;5025769;28;20408;-80
2021/11/26 13:10:48;;;;;;;1.55;1.27;;;13.00;63.40;;;;;;5026228;28;20402;-82
2021/11/26 13:13:15;;;;;;;3.60;2.45;;;12.90;63.10;;;;;;5031963;28;20877;-80
2021/11/26 13:15:43;;;;;;;4.55;2.42;;;12.90;62.60;;;;;;5029397;28;20414;-80
2021/11/26 13:18:10;;;;;;;2.92;1.42;;;12.80;63.90;;;;;;5027315;28;20406;-83
2021/11/26 13:20:43;;;;;;;1.00;0.90;;;12.70;63.40;;;;;;5036675;28;20414;-80
2021/11/26 13:23:13;;;;;;;1.50;0.90;;;12.70;63.50;;;;;;5031215;28;20448;-79
2021/11/26 13:25:46;;;;;;;1.60;0.90;;;12.70;63.40;;;;;;5040436;28;20431;-82
2021/11/26 13:28:15;;;;;;;1.30;0.70;;;12.60;62.90;;;;;;5020667;28;20421;-82
2021/11/26 13:30:55;;;;;;;1.13;0.70;;;12.60;61.80;;;;;;5026520;28;20408;-82
2021/11/26 13:33:28;;;;;;;1.50;1.10;;;12.60;63.60;;;;;;5036075;28;20502;-80
2021/11/26 13:36:03;;;;;;;1.30;0.90;;;12.60;64.20;;;;;;5020434;28;20465;-81
2021/11/26 13:38:41;;;;;;;0.90;0.80;;;12.70;63.60;;;;;;5029608;28;20415;-78
2021/11/26 13:41:23;;;;;;;1.00;0.60;;;12.70;63.90;;;;;;5025116;28;20394;-81
2021/11/26 13:43:56;;;;;;;1.08;0.70;;;12.60;60.50;;;;;;5028272;28;20410;-80
2021/11/26 13:46:27;;;;;;;1.10;0.80;;;12.60;62.30;;;;;;5011371;28;20412;-76
2021/11/26 13:49:04;;;;;;;0.80;0.70;;;12.60;62.30;;;;;;5041425;28;20907;-81
2021/11/26 13:51:52;;;;;;;1.35;0.90;;;12.60;62.80;;;;;;5036851;28;20807;-80
2021/11/26 13:54:41;;;;;;;1.20;1.00;;;12.70;62.70;;;;;;5030357;28;20422;-79
2021/11/26 13:57:09;;;;;;;2.13;1.30;;;12.90;63.90;;;;;;5024943;28;20417;-78
2021/11/26 13:59:39;;;;;;;1.88;1.30;;;13.00;62.60;;;;;;5031289;28;20437;-83
2021/11/26 14:02:07;;;;;;;1.45;1.02;;;13.00;62.80;;;;;;5033198;28;20406;-80
2021/11/26 14:04:37;;;;;;;1.27;1.00;;;13.00;62.10;;;;;;5032089;28;20501;-81
2021/11/26 14:07:16;;;;;;;1.30;1.08;;;12.80;61.40;;;;;;5025303;28;20412;-80
2021/11/26 14:09:46;;;;;;;1.00;0.70;;;12.70;61.40;;;;;;5025657;28;20470;-80
2021/11/26 14:12:15;;;;;;;1.50;0.70;;;12.70;61.70;;;;;;5032361;28;20880;-80
2021/11/26 14:14:44;;;;;;;2.35;1.38;;;12.60;62.00;;;;;;5025584;28;20054;-82
2021/11/26 14:17:15;;;;;;;1.08;0.77;;;12.60;62.10;;;;;;5026999;28;20485;-80